ASA914 PAFA-PAJN
Flight info
| Callsign | ASA914 |
|---|---|
| Flight time | 1h 30m |
| Altitude | 37000 |
| Route | RDFLG J502 ORT Q902 IGSOM WOGUS Q902 SSR |
| Aircraft | B737/M-SDE2E3FGHIRWXY/LB1 |
Departure
| Time | 2026-04-17 19:22 |
|---|---|
| Airport | Fairbanks International Airport (PAFA) |
Arrival
| Time | 2026-04-17 20:52 |
|---|---|
| Airport | Juneau International Airport (PAJN) |
| Time | Latitude | Longitude | Altitude | Speed | Heading |
|---|---|---|---|---|---|
| 2026-04-17 18:42 | 64.82569 | -147.85024 | 442 ft | 0 kts | 42° |
| 2026-04-17 19:10 | 64.82583 | -147.84995 | 435 ft | 4 kts | 43° |
| 2026-04-17 19:10 | 64.82603 | -147.84952 | 434 ft | 4 kts | 43° |
| 2026-04-17 19:10 | 64.82622 | -147.84909 | 438 ft | 4 kts | 43° |
| 2026-04-17 19:10 | 64.82635 | -147.84881 | 437 ft | 0 kts | 43° |
| 2026-04-17 19:15 | 64.82647 | -147.84854 | 434 ft | 6 kts | 50° |
| 2026-04-17 19:15 | 64.82656 | -147.84734 | 438 ft | 9 kts | 99° |
| 2026-04-17 19:15 | 64.82609 | -147.84621 | 436 ft | 11 kts | 172° |
| 2026-04-17 19:16 | 64.82544 | -147.84716 | 430 ft | 12 kts | 219° |
| 2026-04-17 19:16 | 64.82480 | -147.84839 | 438 ft | 13 kts | 219° |
| 2026-04-17 19:16 | 64.82409 | -147.84974 | 440 ft | 14 kts | 219° |
| 2026-04-17 19:16 | 64.82331 | -147.85121 | 440 ft | 15 kts | 218° |
| 2026-04-17 19:17 | 64.82247 | -147.85273 | 442 ft | 15 kts | 217° |
| 2026-04-17 19:17 | 64.82159 | -147.85429 | 435 ft | 16 kts | 216° |
| 2026-04-17 19:17 | 64.82071 | -147.85598 | 442 ft | 17 kts | 218° |
| 2026-04-17 19:17 | 64.81978 | -147.85768 | 434 ft | 17 kts | 218° |
| 2026-04-17 19:18 | 64.81886 | -147.85937 | 439 ft | 17 kts | 218° |
| 2026-04-17 19:18 | 64.81796 | -147.86100 | 430 ft | 16 kts | 217° |
| 2026-04-17 19:18 | 64.81712 | -147.86262 | 442 ft | 15 kts | 220° |
| 2026-04-17 19:18 | 64.81630 | -147.86408 | 437 ft | 15 kts | 216° |
| 2026-04-17 19:19 | 64.81547 | -147.86547 | 438 ft | 15 kts | 215° |
| 2026-04-17 19:19 | 64.81463 | -147.86707 | 431 ft | 16 kts | 226° |
| 2026-04-17 19:19 | 64.81373 | -147.86883 | 437 ft | 17 kts | 218° |
| 2026-04-17 19:19 | 64.81280 | -147.87055 | 442 ft | 17 kts | 217° |
| 2026-04-17 19:20 | 64.81185 | -147.87227 | 435 ft | 18 kts | 218° |
| 2026-04-17 19:20 | 64.81083 | -147.87412 | 426 ft | 19 kts | 218° |
| 2026-04-17 19:20 | 64.80975 | -147.87607 | 430 ft | 20 kts | 220° |
| 2026-04-17 19:20 | 64.80872 | -147.87798 | 436 ft | 15 kts | 217° |
| 2026-04-17 19:21 | 64.80787 | -147.87787 | 433 ft | 15 kts | 128° |
| 2026-04-17 19:21 | 64.80809 | -147.87591 | 431 ft | 14 kts | 38° |
| 2026-04-17 19:21 | 64.80911 | -147.87407 | 434 ft | 34 kts | 37° |
| 2026-04-17 19:21 | 64.81302 | -147.86692 | 439 ft | 109 kts | 38° |
| 2026-04-17 19:22 | 64.82063 | -147.85264 | 488 ft | 164 kts | 42° |
| 2026-04-17 19:22 | 64.82965 | -147.83454 | 1210 ft | 164 kts | 39° |
| 2026-04-17 19:22 | 64.83769 | -147.81702 | 2189 ft | 161 kts | 54° |
| 2026-04-17 19:22 | 64.84140 | -147.79047 | 2718 ft | 185 kts | 99° |
| 2026-04-17 19:23 | 64.83573 | -147.76315 | 3530 ft | 186 kts | 127° |
| 2026-04-17 19:23 | 64.81624 | -147.72381 | 4836 ft | 218 kts | 176° |
| 2026-04-17 19:23 | 64.80005 | -147.72117 | 5168 ft | 250 kts | 174° |
| 2026-04-17 19:24 | 64.78251 | -147.71429 | 5960 ft | 261 kts | 168° |
| 2026-04-17 19:24 | 64.76484 | -147.70318 | 6938 ft | 265 kts | 163° |
| 2026-04-17 19:24 | 64.74730 | -147.68861 | 7934 ft | 268 kts | 160° |
| 2026-04-17 19:24 | 64.72988 | -147.67190 | 8908 ft | 272 kts | 159° |
| 2026-04-17 19:25 | 64.71237 | -147.65409 | 9855 ft | 276 kts | 158° |
| 2026-04-17 19:25 | 64.69447 | -147.63562 | 10536 ft | 290 kts | 158° |
| 2026-04-17 19:25 | 64.67688 | -147.60949 | 10765 ft | 321 kts | 135° |
| 2026-04-17 19:25 | 64.66370 | -147.56613 | 11472 ft | 332 kts | 124° |
| 2026-04-17 19:26 | 64.65155 | -147.51952 | 12319 ft | 338 kts | 123° |
| 2026-04-17 19:26 | 64.63947 | -147.47192 | 13207 ft | 343 kts | 123° |
| 2026-04-17 19:26 | 64.62723 | -147.42365 | 14064 ft | 347 kts | 123° |
| 2026-04-17 19:26 | 64.61491 | -147.37542 | 14906 ft | 351 kts | 123° |
| 2026-04-17 19:27 | 64.60230 | -147.32641 | 15799 ft | 354 kts | 124° |
| 2026-04-17 19:27 | 64.58946 | -147.27688 | 16672 ft | 359 kts | 124° |
| 2026-04-17 19:27 | 64.57643 | -147.22693 | 17528 ft | 363 kts | 124° |
| 2026-04-17 19:27 | 64.56318 | -147.17631 | 18332 ft | 368 kts | 125° |
| 2026-04-17 19:28 | 64.54972 | -147.12512 | 19062 ft | 373 kts | 126° |
| 2026-04-17 19:28 | 64.53619 | -147.07377 | 19778 ft | 377 kts | 126° |
| 2026-04-17 19:28 | 64.52237 | -147.02149 | 20504 ft | 382 kts | 126° |
| 2026-04-17 19:28 | 64.50829 | -146.96836 | 21216 ft | 387 kts | 127° |
| 2026-04-17 19:29 | 64.49404 | -146.91472 | 21813 ft | 395 kts | 128° |
| 2026-04-17 19:29 | 64.47947 | -146.86005 | 22465 ft | 400 kts | 128° |
| 2026-04-17 19:29 | 64.46478 | -146.80497 | 23225 ft | 403 kts | 129° |
| 2026-04-17 19:29 | 64.45007 | -146.74994 | 23840 ft | 407 kts | 129° |
| 2026-04-17 19:30 | 64.43505 | -146.69390 | 24391 ft | 412 kts | 129° |
| 2026-04-17 19:30 | 64.41981 | -146.63723 | 24947 ft | 416 kts | 129° |
| 2026-04-17 19:30 | 64.40443 | -146.58011 | 25517 ft | 419 kts | 130° |
| 2026-04-17 19:30 | 64.38905 | -146.52315 | 26042 ft | 423 kts | 130° |
| 2026-04-17 19:31 | 64.37332 | -146.46507 | 26564 ft | 427 kts | 130° |
| 2026-04-17 19:31 | 64.35743 | -146.40652 | 27087 ft | 431 kts | 130° |
| 2026-04-17 19:31 | 64.34135 | -146.34739 | 27600 ft | 435 kts | 130° |
| 2026-04-17 19:31 | 64.32514 | -146.28790 | 28092 ft | 439 kts | 131° |
| 2026-04-17 19:32 | 64.30900 | -146.22890 | 28528 ft | 443 kts | 132° |
| 2026-04-17 19:32 | 64.29231 | -146.16855 | 29025 ft | 446 kts | 133° |
| 2026-04-17 19:32 | 64.27519 | -146.10849 | 29510 ft | 448 kts | 134° |
| 2026-04-17 19:32 | 64.25807 | -146.04940 | 29985 ft | 449 kts | 134° |
| 2026-04-17 19:33 | 64.24064 | -145.98957 | 30460 ft | 449 kts | 133° |
| 2026-04-17 19:33 | 64.22324 | -145.92991 | 30903 ft | 449 kts | 133° |
| 2026-04-17 19:33 | 64.20571 | -145.86989 | 31292 ft | 451 kts | 132° |
| 2026-04-17 19:33 | 64.18840 | -145.81062 | 31667 ft | 453 kts | 131° |
| 2026-04-17 19:34 | 64.17081 | -145.75046 | 32085 ft | 453 kts | 131° |
| 2026-04-17 19:34 | 64.15315 | -145.69016 | 32506 ft | 454 kts | 130° |
| 2026-04-17 19:34 | 64.13552 | -145.63009 | 32901 ft | 455 kts | 130° |
| 2026-04-17 19:34 | 64.11778 | -145.56984 | 33279 ft | 456 kts | 129° |
| 2026-04-17 19:35 | 64.10028 | -145.51051 | 33667 ft | 456 kts | 129° |
| 2026-04-17 19:35 | 64.08244 | -145.45023 | 33981 ft | 458 kts | 129° |
| 2026-04-17 19:35 | 64.06440 | -145.38946 | 33977 ft | 460 kts | 129° |
| 2026-04-17 19:36 | 64.02874 | -145.26973 | 34022 ft | 456 kts | 129° |
| 2026-04-17 19:36 | 63.99293 | -145.15016 | 34039 ft | 456 kts | 129° |
| 2026-04-17 19:37 | 63.95700 | -145.03087 | 34013 ft | 456 kts | 129° |
| 2026-04-17 19:37 | 63.92099 | -144.91193 | 34016 ft | 456 kts | 129° |
| 2026-04-17 19:38 | 63.88506 | -144.79390 | 34030 ft | 456 kts | 130° |
| 2026-04-17 19:38 | 63.85493 | -144.69540 | 34032 ft | 457 kts | 130° |
| 2026-04-17 19:39 | 63.81861 | -144.57720 | 34042 ft | 457 kts | 130° |
| 2026-04-17 19:39 | 63.77612 | -144.43967 | 34032 ft | 458 kts | 130° |
| 2026-04-17 19:40 | 63.74543 | -144.34086 | 34023 ft | 458 kts | 130° |
| 2026-04-17 19:40 | 63.70884 | -144.22362 | 34028 ft | 457 kts | 130° |
| 2026-04-17 19:41 | 63.67225 | -144.10700 | 34029 ft | 457 kts | 130° |
| 2026-04-17 19:41 | 63.63526 | -143.98967 | 34028 ft | 457 kts | 130° |
| 2026-04-17 19:42 | 63.59857 | -143.87383 | 34030 ft | 457 kts | 131° |
| 2026-04-17 19:42 | 63.56149 | -143.75760 | 34018 ft | 457 kts | 131° |
| 2026-04-17 19:43 | 63.52422 | -143.64148 | 34027 ft | 457 kts | 131° |
| 2026-04-17 19:43 | 63.48715 | -143.52651 | 34035 ft | 457 kts | 131° |
| 2026-04-17 19:44 | 63.44975 | -143.41107 | 34005 ft | 458 kts | 131° |
| 2026-04-17 19:44 | 63.41215 | -143.29555 | 33977 ft | 459 kts | 131° |
| 2026-04-17 19:45 | 63.37478 | -143.18130 | 33948 ft | 458 kts | 131° |
| 2026-04-17 19:45 | 63.33707 | -143.06661 | 33961 ft | 458 kts | 132° |
| 2026-04-17 19:46 | 63.29933 | -142.95243 | 33967 ft | 458 kts | 132° |
| 2026-04-17 19:46 | 63.26165 | -142.83900 | 34029 ft | 458 kts | 132° |
| 2026-04-17 19:47 | 63.22377 | -142.72552 | 34027 ft | 459 kts | 132° |
| 2026-04-17 19:47 | 63.18570 | -142.61203 | 33998 ft | 459 kts | 132° |
| 2026-04-17 19:48 | 63.14750 | -142.49873 | 34016 ft | 459 kts | 133° |
| 2026-04-17 19:48 | 63.10909 | -142.38537 | 34011 ft | 460 kts | 133° |
| 2026-04-17 19:49 | 63.07074 | -142.27275 | 33998 ft | 460 kts | 133° |
| 2026-04-17 19:49 | 63.03226 | -142.16028 | 33993 ft | 460 kts | 133° |
| 2026-04-17 19:50 | 62.99354 | -142.04763 | 33948 ft | 460 kts | 133° |
| 2026-04-17 19:50 | 62.95501 | -141.93625 | 33983 ft | 458 kts | 135° |
| 2026-04-17 19:51 | 62.91069 | -141.83851 | 33994 ft | 449 kts | 146° |
| 2026-04-17 19:51 | 62.86378 | -141.74898 | 33994 ft | 449 kts | 146° |
| 2026-04-17 19:52 | 62.81647 | -141.65857 | 34008 ft | 451 kts | 146° |
| 2026-04-17 19:52 | 62.76953 | -141.56816 | 34019 ft | 451 kts | 146° |
| 2026-04-17 19:53 | 62.72234 | -141.47726 | 34040 ft | 451 kts | 146° |
| 2026-04-17 19:53 | 62.67543 | -141.38732 | 34046 ft | 452 kts | 146° |
| 2026-04-17 19:54 | 62.62801 | -141.29684 | 34055 ft | 452 kts | 146° |
| 2026-04-17 19:54 | 62.58081 | -141.20717 | 34054 ft | 453 kts | 146° |
| 2026-04-17 19:55 | 62.53325 | -141.11721 | 33995 ft | 452 kts | 146° |
| 2026-04-17 19:55 | 62.48589 | -141.02797 | 33972 ft | 452 kts | 146° |
| 2026-04-17 19:56 | 62.43818 | -140.93869 | 33963 ft | 452 kts | 147° |
| 2026-04-17 19:56 | 62.39061 | -140.85025 | 33970 ft | 452 kts | 147° |
| 2026-04-17 19:57 | 62.34297 | -140.76204 | 33968 ft | 453 kts | 147° |
| 2026-04-17 19:57 | 62.29501 | -140.67357 | 33988 ft | 453 kts | 147° |
| 2026-04-17 19:58 | 62.24710 | -140.58554 | 34053 ft | 453 kts | 147° |
| 2026-04-17 19:58 | 62.19935 | -140.49815 | 34061 ft | 452 kts | 147° |
| 2026-04-17 19:59 | 62.15171 | -140.41135 | 34060 ft | 451 kts | 147° |
| 2026-04-17 19:59 | 62.10377 | -140.32442 | 34058 ft | 449 kts | 147° |
| 2026-04-17 20:00 | 62.05592 | -140.23809 | 34139 ft | 458 kts | 147° |
| 2026-04-17 20:00 | 62.03134 | -140.19396 | 34275 ft | 463 kts | 147° |
| 2026-04-17 20:00 | 62.00658 | -140.14952 | 34528 ft | 465 kts | 147° |
| 2026-04-17 20:00 | 61.98216 | -140.10571 | 34869 ft | 464 kts | 147° |
| 2026-04-17 20:01 | 61.95748 | -140.06146 | 35217 ft | 462 kts | 146° |
| 2026-04-17 20:01 | 61.93283 | -140.01742 | 35528 ft | 462 kts | 146° |
| 2026-04-17 20:01 | 61.90809 | -139.97337 | 35803 ft | 462 kts | 146° |
| 2026-04-17 20:01 | 61.88368 | -139.93002 | 36113 ft | 461 kts | 146° |
| 2026-04-17 20:02 | 61.85907 | -139.88636 | 36400 ft | 461 kts | 146° |
| 2026-04-17 20:02 | 61.83434 | -139.84262 | 36683 ft | 461 kts | 146° |
| 2026-04-17 20:02 | 61.80973 | -139.79918 | 36927 ft | 461 kts | 146° |
| 2026-04-17 20:03 | 61.76033 | -139.71227 | 36908 ft | 462 kts | 146° |
| 2026-04-17 20:03 | 61.71122 | -139.62616 | 36897 ft | 459 kts | 146° |
| 2026-04-17 20:04 | 61.66213 | -139.54054 | 36901 ft | 457 kts | 146° |
| 2026-04-17 20:04 | 61.61312 | -139.45543 | 36888 ft | 456 kts | 146° |
| 2026-04-17 20:05 | 61.56409 | -139.37064 | 36857 ft | 455 kts | 146° |
| 2026-04-17 20:05 | 61.51533 | -139.28664 | 36824 ft | 454 kts | 147° |
| 2026-04-17 20:06 | 61.46633 | -139.20260 | 36815 ft | 454 kts | 147° |
| 2026-04-17 20:06 | 61.41741 | -139.11899 | 36811 ft | 455 kts | 147° |
| 2026-04-17 20:07 | 61.36829 | -139.03593 | 36809 ft | 455 kts | 149° |
| 2026-04-17 20:07 | 61.31570 | -138.96308 | 36814 ft | 452 kts | 154° |
| 2026-04-17 20:08 | 61.26212 | -138.89430 | 36804 ft | 454 kts | 155° |
| 2026-04-17 20:08 | 61.20866 | -138.82581 | 36838 ft | 453 kts | 154° |
| 2026-04-17 20:09 | 61.15545 | -138.75613 | 36914 ft | 452 kts | 154° |
| 2026-04-17 20:09 | 61.10240 | -138.68657 | 36913 ft | 451 kts | 154° |
| 2026-04-17 20:10 | 61.04933 | -138.61742 | 36932 ft | 451 kts | 154° |
| 2026-04-17 20:10 | 60.99601 | -138.54832 | 36917 ft | 450 kts | 155° |
| 2026-04-17 20:11 | 60.94316 | -138.48047 | 36945 ft | 450 kts | 154° |
| 2026-04-17 20:11 | 60.89007 | -138.41233 | 36949 ft | 449 kts | 154° |
| 2026-04-17 20:12 | 60.83725 | -138.34499 | 36980 ft | 448 kts | 155° |
| 2026-04-17 20:12 | 60.78431 | -138.27757 | 36964 ft | 449 kts | 154° |
| 2026-04-17 20:13 | 60.73121 | -138.20989 | 36954 ft | 449 kts | 154° |
| 2026-04-17 20:13 | 60.67809 | -138.14266 | 36975 ft | 449 kts | 154° |
| 2026-04-17 20:14 | 60.62510 | -138.07597 | 37007 ft | 449 kts | 154° |
| 2026-04-17 20:14 | 60.57176 | -138.00905 | 37012 ft | 450 kts | 154° |
| 2026-04-17 20:15 | 60.51819 | -137.94199 | 37036 ft | 451 kts | 155° |
| 2026-04-17 20:15 | 60.46478 | -137.87623 | 36986 ft | 450 kts | 154° |
| 2026-04-17 20:16 | 60.41168 | -137.81025 | 37018 ft | 450 kts | 154° |
| 2026-04-17 20:16 | 60.35822 | -137.74339 | 37040 ft | 451 kts | 154° |
| 2026-04-17 20:17 | 60.30449 | -137.67755 | 37060 ft | 451 kts | 154° |
| 2026-04-17 20:17 | 60.25111 | -137.61225 | 37062 ft | 452 kts | 154° |
| 2026-04-17 20:18 | 60.19728 | -137.54637 | 37058 ft | 452 kts | 154° |
| 2026-04-17 20:18 | 60.14371 | -137.48121 | 37061 ft | 452 kts | 155° |
| 2026-04-17 20:19 | 60.08974 | -137.41606 | 37066 ft | 452 kts | 155° |
| 2026-04-17 20:19 | 60.03568 | -137.35078 | 37083 ft | 452 kts | 155° |
| 2026-04-17 20:20 | 59.98200 | -137.28628 | 37087 ft | 453 kts | 155° |
| 2026-04-17 20:20 | 59.92787 | -137.22146 | 37085 ft | 453 kts | 155° |
| 2026-04-17 20:20 | 59.90069 | -137.18897 | 36949 ft | 455 kts | 155° |
| 2026-04-17 20:21 | 59.87343 | -137.15651 | 36663 ft | 455 kts | 155° |
| 2026-04-17 20:21 | 59.84666 | -137.12465 | 36407 ft | 452 kts | 155° |
| 2026-04-17 20:21 | 59.81967 | -137.09258 | 36153 ft | 450 kts | 155° |
| 2026-04-17 20:21 | 59.79271 | -137.06081 | 35903 ft | 451 kts | 155° |
| 2026-04-17 20:22 | 59.76566 | -137.02869 | 35679 ft | 452 kts | 155° |
| 2026-04-17 20:22 | 59.73866 | -136.99674 | 35409 ft | 452 kts | 156° |
| 2026-04-17 20:22 | 59.71159 | -136.96510 | 35175 ft | 451 kts | 155° |
| 2026-04-17 20:22 | 59.68493 | -136.93367 | 34937 ft | 451 kts | 155° |
| 2026-04-17 20:23 | 59.65799 | -136.90199 | 34690 ft | 450 kts | 155° |
| 2026-04-17 20:23 | 59.63104 | -136.87027 | 34436 ft | 448 kts | 155° |
| 2026-04-17 20:23 | 59.60407 | -136.83887 | 34200 ft | 447 kts | 155° |
| 2026-04-17 20:23 | 59.57757 | -136.80801 | 33938 ft | 445 kts | 155° |
| 2026-04-17 20:24 | 59.55091 | -136.77727 | 33668 ft | 442 kts | 155° |
| 2026-04-17 20:24 | 59.52467 | -136.74548 | 33382 ft | 442 kts | 153° |
| 2026-04-17 20:24 | 59.49853 | -136.71376 | 33107 ft | 438 kts | 155° |
| 2026-04-17 20:24 | 59.47265 | -136.68400 | 32835 ft | 434 kts | 155° |
| 2026-04-17 20:25 | 59.44652 | -136.65453 | 32570 ft | 430 kts | 156° |
| 2026-04-17 20:25 | 59.42054 | -136.62540 | 32311 ft | 426 kts | 156° |
| 2026-04-17 20:25 | 59.39475 | -136.59683 | 32045 ft | 423 kts | 155° |
| 2026-04-17 20:25 | 59.36969 | -136.56801 | 31781 ft | 420 kts | 155° |
| 2026-04-17 20:26 | 59.34456 | -136.53878 | 31521 ft | 417 kts | 155° |
| 2026-04-17 20:26 | 59.31944 | -136.51086 | 31266 ft | 413 kts | 155° |
| 2026-04-17 20:26 | 59.29499 | -136.48236 | 31005 ft | 412 kts | 154° |
| 2026-04-17 20:26 | 59.27045 | -136.45370 | 30605 ft | 407 kts | 155° |
| 2026-04-17 20:27 | 59.24615 | -136.42565 | 30170 ft | 403 kts | 155° |
| 2026-04-17 20:27 | 59.23009 | -136.40752 | 29835 ft | 400 kts | 155° |
| 2026-04-17 20:27 | 59.20608 | -136.38042 | 29357 ft | 395 kts | 155° |
| 2026-04-17 20:27 | 59.17459 | -136.34524 | 28526 ft | 393 kts | 155° |
| 2026-04-17 20:28 | 59.15865 | -136.32678 | 28139 ft | 393 kts | 153° |
| 2026-04-17 20:28 | 59.13558 | -136.29969 | 27647 ft | 389 kts | 155° |
| 2026-04-17 20:28 | 59.11221 | -136.27342 | 27149 ft | 385 kts | 155° |
| 2026-04-17 20:28 | 59.08899 | -136.24774 | 26657 ft | 382 kts | 155° |
| 2026-04-17 20:29 | 59.06616 | -136.22263 | 26178 ft | 379 kts | 155° |
| 2026-04-17 20:29 | 59.04327 | -136.19751 | 25698 ft | 377 kts | 155° |
| 2026-04-17 20:29 | 59.02054 | -136.17215 | 25252 ft | 374 kts | 155° |
| 2026-04-17 20:29 | 58.99803 | -136.14720 | 24792 ft | 370 kts | 155° |
| 2026-04-17 20:30 | 58.95355 | -136.09805 | 23929 ft | 364 kts | 155° |
| 2026-04-17 20:30 | 58.93187 | -136.07403 | 23435 ft | 361 kts | 155° |
| 2026-04-17 20:30 | 58.91015 | -136.04999 | 22926 ft | 359 kts | 155° |
| 2026-04-17 20:31 | 58.88858 | -136.02613 | 22430 ft | 354 kts | 155° |
| 2026-04-17 20:31 | 58.86741 | -136.00271 | 21736 ft | 348 kts | 155° |
| 2026-04-17 20:31 | 58.84643 | -135.97957 | 20939 ft | 346 kts | 155° |
| 2026-04-17 20:31 | 58.82558 | -135.95656 | 20178 ft | 343 kts | 155° |
| 2026-04-17 20:32 | 58.80493 | -135.93402 | 19448 ft | 337 kts | 156° |
| 2026-04-17 20:32 | 58.78462 | -135.91211 | 18765 ft | 335 kts | 155° |
| 2026-04-17 20:32 | 58.76449 | -135.88978 | 18055 ft | 331 kts | 155° |
| 2026-04-17 20:32 | 58.74475 | -135.86780 | 17334 ft | 328 kts | 155° |
| 2026-04-17 20:33 | 58.72501 | -135.84618 | 16611 ft | 324 kts | 156° |
| 2026-04-17 20:33 | 58.70571 | -135.82522 | 15961 ft | 319 kts | 156° |
| 2026-04-17 20:33 | 58.68649 | -135.80425 | 15205 ft | 317 kts | 156° |
| 2026-04-17 20:33 | 58.66743 | -135.78359 | 14486 ft | 313 kts | 157° |
| 2026-04-17 20:34 | 58.64851 | -135.76307 | 13826 ft | 310 kts | 156° |
| 2026-04-17 20:34 | 58.62983 | -135.74268 | 13198 ft | 305 kts | 156° |
| 2026-04-17 20:34 | 58.61154 | -135.72270 | 12553 ft | 301 kts | 156° |
| 2026-04-17 20:34 | 58.59332 | -135.70285 | 11894 ft | 298 kts | 156° |
| 2026-04-17 20:35 | 58.57549 | -135.68359 | 11149 ft | 298 kts | 156° |
| 2026-04-17 20:35 | 58.55749 | -135.66375 | 10425 ft | 293 kts | 156° |
| 2026-04-17 20:35 | 58.53953 | -135.64539 | 9913 ft | 294 kts | 156° |
| 2026-04-17 20:35 | 58.52171 | -135.62641 | 9539 ft | 290 kts | 155° |
| 2026-04-17 20:36 | 58.50468 | -135.60777 | 9402 ft | 272 kts | 155° |
| 2026-04-17 20:36 | 58.48891 | -135.59054 | 9268 ft | 256 kts | 155° |
| 2026-04-17 20:36 | 58.47390 | -135.57419 | 9141 ft | 240 kts | 155° |
| 2026-04-17 20:36 | 58.45979 | -135.55886 | 9016 ft | 226 kts | 156° |
| 2026-04-17 20:37 | 58.44624 | -135.54428 | 8702 ft | 222 kts | 156° |
| 2026-04-17 20:37 | 58.43285 | -135.52994 | 8332 ft | 220 kts | 156° |
| 2026-04-17 20:37 | 58.41951 | -135.51568 | 7962 ft | 217 kts | 156° |
| 2026-04-17 20:37 | 58.40649 | -135.50174 | 7588 ft | 217 kts | 155° |
| 2026-04-17 20:38 | 58.39339 | -135.48776 | 7264 ft | 214 kts | 155° |
| 2026-04-17 20:38 | 58.38042 | -135.47391 | 6916 ft | 214 kts | 156° |
| 2026-04-17 20:38 | 58.36740 | -135.46003 | 6669 ft | 212 kts | 155° |
| 2026-04-17 20:38 | 58.35457 | -135.44633 | 6418 ft | 211 kts | 155° |
| 2026-04-17 20:39 | 58.34193 | -135.43285 | 6142 ft | 210 kts | 155° |
| 2026-04-17 20:39 | 58.32918 | -135.41927 | 5853 ft | 209 kts | 154° |
| 2026-04-17 20:39 | 58.31648 | -135.40575 | 5704 ft | 209 kts | 154° |
| 2026-04-17 20:39 | 58.30381 | -135.39228 | 5675 ft | 208 kts | 155° |
| 2026-04-17 20:40 | 58.29142 | -135.37909 | 5674 ft | 205 kts | 155° |
| 2026-04-17 20:40 | 58.27895 | -135.36583 | 5667 ft | 205 kts | 155° |
| 2026-04-17 20:40 | 58.26642 | -135.35253 | 5670 ft | 206 kts | 155° |
| 2026-04-17 20:40 | 58.25385 | -135.33922 | 5685 ft | 206 kts | 155° |
| 2026-04-17 20:41 | 58.24138 | -135.32603 | 5682 ft | 207 kts | 155° |
| 2026-04-17 20:41 | 58.22891 | -135.31282 | 5688 ft | 203 kts | 155° |
| 2026-04-17 20:41 | 58.21681 | -135.29998 | 5667 ft | 198 kts | 154° |
| 2026-04-17 20:41 | 58.20732 | -135.28178 | 5660 ft | 196 kts | 120° |
| 2026-04-17 20:42 | 58.20488 | -135.25607 | 5660 ft | 205 kts | 86° |
| 2026-04-17 20:42 | 58.21057 | -135.23122 | 5672 ft | 212 kts | 49° |
| 2026-04-17 20:42 | 58.22258 | -135.21498 | 5691 ft | 214 kts | 27° |
| 2026-04-17 20:42 | 58.23577 | -135.20203 | 5686 ft | 217 kts | 27° |
| 2026-04-17 20:43 | 58.24934 | -135.18889 | 5683 ft | 219 kts | 27° |
| 2026-04-17 20:43 | 58.26284 | -135.17580 | 5667 ft | 215 kts | 27° |
| 2026-04-17 20:43 | 58.27602 | -135.16298 | 5657 ft | 210 kts | 27° |
| 2026-04-17 20:43 | 58.28892 | -135.15038 | 5659 ft | 206 kts | 27° |
| 2026-04-17 20:44 | 58.30173 | -135.13781 | 5683 ft | 208 kts | 27° |
| 2026-04-17 20:44 | 58.31424 | -135.12548 | 5676 ft | 201 kts | 27° |
| 2026-04-17 20:44 | 58.32634 | -135.11358 | 5667 ft | 191 kts | 27° |
| 2026-04-17 20:44 | 58.33808 | -135.10205 | 5670 ft | 189 kts | 27° |
| 2026-04-17 20:45 | 58.34977 | -135.09056 | 5689 ft | 189 kts | 28° |
| 2026-04-17 20:45 | 58.35888 | -135.07435 | 5626 ft | 175 kts | 73° |
| 2026-04-17 20:45 | 58.36092 | -135.05211 | 5423 ft | 177 kts | 90° |
| 2026-04-17 20:45 | 58.36245 | -135.02937 | 5125 ft | 166 kts | 88° |
| 2026-04-17 20:46 | 58.36329 | -135.00832 | 4861 ft | 151 kts | 96° |
| 2026-04-17 20:46 | 58.36322 | -134.98906 | 4663 ft | 144 kts | 98° |
| 2026-04-17 20:46 | 58.36294 | -134.97030 | 4441 ft | 142 kts | 98° |
| 2026-04-17 20:46 | 58.36265 | -134.95154 | 4223 ft | 141 kts | 97° |
| 2026-04-17 20:47 | 58.36237 | -134.93297 | 4009 ft | 139 kts | 97° |
| 2026-04-17 20:47 | 58.36207 | -134.91438 | 3807 ft | 145 kts | 97° |
| 2026-04-17 20:47 | 58.36174 | -134.89448 | 3567 ft | 151 kts | 97° |
| 2026-04-17 20:47 | 58.36145 | -134.87487 | 3326 ft | 148 kts | 96° |
| 2026-04-17 20:48 | 58.36118 | -134.85560 | 3101 ft | 144 kts | 96° |
| 2026-04-17 20:48 | 58.36089 | -134.83648 | 2891 ft | 145 kts | 96° |
| 2026-04-17 20:48 | 58.36060 | -134.81734 | 2664 ft | 144 kts | 95° |
| 2026-04-17 20:48 | 58.36032 | -134.79836 | 2439 ft | 142 kts | 95° |
| 2026-04-17 20:49 | 58.36004 | -134.77964 | 2228 ft | 140 kts | 94° |
| 2026-04-17 20:49 | 58.35977 | -134.76097 | 2020 ft | 141 kts | 94° |
| 2026-04-17 20:49 | 58.35950 | -134.74254 | 1802 ft | 140 kts | 94° |
| 2026-04-17 20:49 | 58.35923 | -134.72409 | 1591 ft | 139 kts | 94° |
| 2026-04-17 20:50 | 58.35897 | -134.70617 | 1541 ft | 132 kts | 95° |
| 2026-04-17 20:50 | 58.35864 | -134.68841 | 1318 ft | 137 kts | 94° |
| 2026-04-17 20:50 | 58.35866 | -134.66949 | 1028 ft | 147 kts | 93° |
| 2026-04-17 20:50 | 58.35821 | -134.64975 | 672 ft | 147 kts | 99° |
| 2026-04-17 20:51 | 58.35701 | -134.63114 | 469 ft | 134 kts | 92° |
| 2026-04-17 20:51 | 58.35902 | -134.61496 | 230 ft | 121 kts | 77° |
| 2026-04-17 20:51 | 58.35843 | -134.59970 | 93 ft | 114 kts | 111° |
| 2026-04-17 20:51 | 58.35631 | -134.58602 | 31 ft | 95 kts | 105° |
| 2026-04-17 20:52 | 58.35502 | -134.57667 | 33 ft | 53 kts | 104° |
| 2026-04-17 20:52 | 58.35466 | -134.57273 | 33 ft | 9 kts | 42° |
| 2026-04-17 20:52 | 58.35473 | -134.57268 | 34 ft | 2 kts | 15° |
| 2026-04-17 20:52 | 58.35519 | -134.57276 | 33 ft | 11 kts | 354° |
| 2026-04-17 20:53 | 58.35532 | -134.57279 | 32 ft | 3 kts | 353° |
| 2026-04-17 20:53 | 58.35565 | -134.57312 | 32 ft | 6 kts | 317° |
| 2026-04-17 20:53 | 58.35577 | -134.57400 | 33 ft | 8 kts | 281° |
| 2026-04-17 20:53 | 58.35590 | -134.57518 | 33 ft | 10 kts | 285° |
| 2026-04-17 20:54 | 58.35610 | -134.57659 | 32 ft | 12 kts | 284° |
| 2026-04-17 20:54 | 58.35634 | -134.57827 | 32 ft | 14 kts | 285° |
| 2026-04-17 20:54 | 58.35661 | -134.58018 | 32 ft | 16 kts | 286° |
| 2026-04-17 20:54 | 58.35690 | -134.58232 | 33 ft | 18 kts | 284° |
| 2026-04-17 20:55 | 58.35721 | -134.58466 | 33 ft | 18 kts | 284° |
| 2026-04-17 20:55 | 58.35770 | -134.58613 | 31 ft | 13 kts | 335° |
| 2026-04-17 20:55 | 58.35853 | -134.58641 | 33 ft | 6 kts | 356° |
| 2026-04-17 20:55 | 58.35898 | -134.58645 | 33 ft | 7 kts | 357° |
| 2026-04-17 20:56 | 58.35954 | -134.58649 | 132 ft | 9 kts | 1° |
| 2026-04-17 20:56 | 58.36021 | -134.58651 | 159 ft | 10 kts | 359° |
| 2026-04-17 20:56 | 58.36057 | -134.58630 | 158 ft | 3 kts | 52° |
| 2026-04-17 20:56 | 58.36059 | -134.58577 | 160 ft | 5 kts | 89° |
| 2026-04-17 20:57 | 58.36054 | -134.58514 | 159 ft | 4 kts | 136° |
| 2026-04-17 20:57 | 58.36040 | -134.58511 | 160 ft | 0 kts | 181° |